Terminal Aerodrome Forecast
Issued by NWS

Home | Current Version | Previous Version | Text Only | Print | Product List | Glossary On
Versions: 1 2 3 4 5 6 7 8 9 10 11 12 13 14 15 16 17 18 19 20 21 22 23 24 25 26 27
000
FTUS46 KLOX 210500
TAFOXR
TAF
KOXR 210522Z 2106/2206 29007KT P6SM SKC
     FM210800 VRB03KT P6SM SKC
     FM211000 VRB03KT P6SM OVC010
     FM211700 27008KT P6SM SCT010
     FM212100 28012KT P6SM SKC
     FM220400 29008KT P6SM SKC=

USA.gov is the U.S. government's official web portal to all federal, state and local government web resources and services.